createdAt,value
2022-07-29T00:01:44.747Z,24.00
2022-07-29T00:04:14.131Z,24.00
2022-07-29T00:06:44.567Z,23.90
2022-07-29T00:09:13.296Z,23.90
2022-07-29T00:11:41.840Z,24.00
2022-07-29T00:14:10.777Z,24.00
2022-07-29T00:16:39.315Z,23.90
2022-07-29T00:19:08.125Z,24.00
2022-07-29T00:21:36.707Z,23.90
2022-07-29T00:24:07.061Z,23.80
2022-07-29T00:26:35.753Z,23.90
2022-07-29T00:31:54.099Z,23.80
2022-07-29T00:34:36.394Z,23.70
2022-07-29T00:37:05.264Z,23.70
2022-07-29T00:39:37.856Z,23.70
2022-07-29T00:42:06.715Z,23.60
2022-07-29T00:44:38.727Z,23.60
2022-07-29T00:47:25.929Z,23.60
2022-07-29T00:49:54.565Z,23.50
2022-07-29T00:52:23.067Z,23.50
2022-07-29T00:54:53.270Z,23.30
2022-07-29T00:57:22.526Z,23.40
2022-07-29T00:59:50.989Z,23.40
2022-07-29T01:02:19.740Z,23.40
2022-07-29T01:04:48.406Z,23.30
2022-07-29T01:07:17.311Z,23.30
2022-07-29T01:09:47.304Z,23.30
2022-07-29T01:12:18.712Z,23.30
2022-07-29T01:14:48.144Z,23.20
2022-07-29T01:17:20.300Z,23.20
2022-07-29T01:19:52.240Z,23.20
2022-07-29T01:22:28.353Z,23.10
2022-07-29T01:25:05.845Z,23.10
2022-07-29T01:27:47.262Z,23.00
2022-07-29T01:30:17.404Z,23.00
2022-07-29T01:33:09.890Z,23.00
2022-07-29T01:35:40.808Z,22.90
2022-07-29T01:38:11.927Z,22.90
2022-07-29T01:40:43.437Z,22.90
2022-07-29T01:43:35.295Z,22.80
2022-07-29T01:46:06.916Z,22.90
2022-07-29T01:48:41.522Z,22.80
2022-07-29T01:51:13.044Z,22.90
2022-07-29T01:53:46.589Z,22.80
2022-07-29T01:56:16.034Z,22.80
2022-07-29T01:58:46.222Z,22.80
2022-07-29T02:01:17.220Z,22.70
2022-07-29T02:03:46.403Z,22.70
2022-07-29T02:06:16.272Z,22.60
2022-07-29T02:08:45.501Z,22.60
2022-07-29T02:11:14.139Z,22.60
2022-07-29T02:13:43.577Z,22.50
2022-07-29T02:16:12.980Z,22.50
2022-07-29T02:18:44.161Z,22.50
2022-07-29T02:21:15.547Z,22.40
2022-07-29T02:23:51.471Z,22.40
2022-07-29T02:26:21.729Z,22.30
2022-07-29T02:28:51.186Z,22.20
2022-07-29T02:31:20.948Z,22.20
2022-07-29T02:33:52.144Z,22.10
2022-07-29T02:36:21.282Z,22.10
2022-07-29T02:38:53.360Z,22.00
2022-07-29T02:41:23.152Z,22.00
2022-07-29T02:43:55.828Z,22.00
2022-07-29T02:46:29.718Z,22.00
2022-07-29T02:49:01.846Z,22.00
2022-07-29T02:51:43.408Z,22.00
2022-07-29T02:54:14.265Z,22.00
2022-07-29T02:56:44.019Z,22.00
2022-07-29T02:59:14.270Z,22.00
2022-07-29T03:01:44.953Z,22.00
2022-07-29T03:04:15.696Z,22.00
2022-07-29T03:06:45.695Z,21.90
2022-07-29T03:09:14.533Z,22.00
2022-07-29T03:11:49.224Z,22.00
2022-07-29T03:14:19.812Z,22.00
2022-07-29T03:16:49.054Z,22.10
2022-07-29T03:19:19.083Z,22.10
2022-07-29T03:21:47.721Z,22.10
2022-07-29T03:24:26.934Z,22.10
2022-07-29T03:27:14.111Z,22.20
2022-07-29T03:29:43.658Z,22.30
2022-07-29T03:32:23.916Z,22.20
2022-07-29T03:34:55.449Z,22.40
2022-07-29T03:37:24.162Z,22.30
2022-07-29T03:39:53.447Z,22.30
2022-07-29T03:42:23.552Z,22.40
2022-07-29T03:44:52.673Z,22.40
2022-07-29T03:47:23.616Z,22.40
2022-07-29T03:50:14.463Z,22.50
2022-07-29T03:52:43.223Z,22.50
2022-07-29T03:55:34.870Z,22.50
2022-07-29T03:58:04.304Z,22.60
2022-07-29T04:00:34.553Z,22.60
2022-07-29T04:03:03.756Z,22.70
2022-07-29T04:05:33.854Z,22.70
2022-07-29T04:08:02.535Z,22.80
2022-07-29T04:10:31.873Z,22.80
2022-07-29T04:13:00.745Z,22.80
2022-07-29T04:15:31.034Z,22.80
2022-07-29T04:18:00.683Z,22.90
2022-07-29T04:20:29.316Z,22.90
2022-07-29T04:22:59.387Z,22.90
2022-07-29T04:25:27.918Z,23.00
2022-07-29T04:28:02.603Z,23.00
2022-07-29T04:30:31.581Z,23.10
2022-07-29T04:33:01.979Z,23.10
2022-07-29T04:35:30.784Z,23.20
2022-07-29T04:38:15.919Z,23.20
2022-07-29T04:40:46.859Z,23.20
2022-07-29T04:43:36.948Z,23.30
2022-07-29T04:46:06.217Z,23.30
2022-07-29T04:48:35.001Z,23.40
2022-07-29T04:51:03.699Z,23.40
2022-07-29T04:53:33.630Z,23.50
2022-07-29T04:56:02.224Z,23.60
2022-07-29T04:58:30.798Z,23.60
2022-07-29T05:00:59.368Z,23.70
2022-07-29T05:03:27.901Z,23.80
2022-07-29T05:05:56.486Z,23.80
2022-07-29T05:08:24.978Z,23.90
2022-07-29T05:10:55.071Z,23.90
2022-07-29T05:13:23.802Z,24.00
2022-07-29T05:15:52.482Z,24.00
2022-07-29T05:18:21.027Z,24.10
2022-07-29T05:20:54.742Z,24.20
2022-07-29T05:23:23.361Z,24.20
2022-07-29T05:25:52.518Z,24.30
2022-07-29T05:28:22.429Z,24.30
2022-07-29T05:30:50.969Z,24.50
2022-07-29T05:33:35.488Z,24.40
2022-07-29T05:36:06.722Z,24.50
2022-07-29T05:38:35.333Z,24.60
2022-07-29T05:41:03.899Z,24.70
2022-07-29T05:43:34.151Z,24.70
2022-07-29T05:46:02.813Z,24.80
2022-07-29T05:48:31.800Z,24.80
2022-07-29T05:51:00.550Z,24.80
2022-07-29T05:53:29.116Z,24.90
2022-07-29T05:55:57.753Z,25.00
2022-07-29T05:58:26.377Z,25.20
2022-07-29T06:01:00.324Z,25.20
2022-07-29T06:03:29.069Z,25.30
2022-07-29T06:05:57.506Z,25.50
2022-07-29T06:08:26.113Z,25.50
2022-07-29T06:10:54.643Z,25.50
2022-07-29T06:13:23.234Z,25.60
2022-07-29T06:15:51.831Z,25.70
2022-07-29T06:18:22.067Z,25.80
2022-07-29T06:20:50.683Z,25.90
2022-07-29T06:23:19.344Z,26.00
2022-07-29T06:25:47.869Z,26.00
2022-07-29T06:28:16.725Z,26.10
2022-07-29T06:30:45.257Z,26.20
2022-07-29T06:33:18.481Z,26.30
2022-07-29T06:36:08.076Z,26.40
2022-07-29T06:38:39.084Z,26.50
2022-07-29T06:41:13.737Z,26.50
2022-07-29T06:43:52.208Z,26.50
2022-07-29T06:46:24.255Z,26.60
2022-07-29T06:48:53.697Z,26.60
2022-07-29T06:51:24.186Z,26.70
2022-07-29T06:54:11.766Z,26.80
2022-07-29T06:56:42.753Z,26.80
2022-07-29T06:59:12.409Z,26.90
2022-07-29T07:01:41.961Z,27.00
2022-07-29T07:04:10.889Z,27.10
2022-07-29T07:06:41.105Z,27.10
2022-07-29T07:09:09.735Z,27.20
2022-07-29T07:11:38.280Z,27.30
2022-07-29T07:14:07.063Z,27.30
2022-07-29T07:16:35.672Z,27.40
2022-07-29T07:19:04.385Z,27.50
2022-07-29T07:21:32.902Z,27.60
2022-07-29T07:24:21.558Z,27.70
2022-07-29T07:26:50.208Z,27.80
2022-07-29T07:29:18.709Z,27.90
2022-07-29T07:32:06.045Z,28.00
2022-07-29T07:34:34.787Z,28.10
2022-07-29T07:37:03.265Z,28.20
2022-07-29T07:39:33.400Z,28.30
2022-07-29T07:42:02.576Z,28.40
2022-07-29T07:44:31.272Z,28.50
2022-07-29T07:47:08.717Z,28.60
2022-07-29T07:49:41.708Z,28.70
2022-07-29T07:52:10.670Z,28.70
2022-07-29T07:54:40.949Z,28.90
2022-07-29T07:57:09.562Z,28.90
2022-07-29T07:59:38.199Z,29.00
2022-07-29T08:02:07.282Z,29.10
2022-07-29T08:04:36.513Z,29.20
2022-07-29T08:07:05.163Z,29.30
2022-07-29T08:09:34.128Z,29.40
2022-07-29T08:12:04.946Z,29.50
2022-07-29T08:14:33.752Z,29.60
2022-07-29T08:17:02.600Z,29.70
2022-07-29T08:19:31.432Z,29.70
2022-07-29T08:22:00.065Z,29.90
2022-07-29T08:24:54.793Z,29.90
2022-07-29T08:27:42.937Z,30.00
2022-07-29T08:30:12.528Z,30.10
2022-07-29T08:32:53.727Z,30.20
2022-07-29T08:35:23.208Z,30.30
2022-07-29T08:37:51.884Z,30.40
2022-07-29T08:40:31.894Z,30.50
2022-07-29T08:43:21.406Z,30.60
2022-07-29T08:45:51.168Z,30.60
2022-07-29T08:48:22.541Z,30.70
2022-07-29T08:50:52.452Z,30.80
2022-07-29T08:53:21.483Z,30.90
2022-07-29T08:55:50.978Z,30.90
2022-07-29T08:58:23.317Z,31.00
2022-07-29T09:00:55.251Z,31.00
2022-07-29T09:03:26.712Z,31.00
2022-07-29T09:05:55.772Z,31.20
2022-07-29T09:08:25.094Z,31.20
2022-07-29T09:10:54.768Z,31.40
2022-07-29T09:13:24.850Z,31.40
2022-07-29T09:15:53.617Z,31.50
2022-07-29T09:18:38.093Z,31.60
2022-07-29T09:21:24.593Z,31.70
2022-07-29T09:24:07.828Z,31.90
2022-07-29T09:26:55.499Z,32.00
2022-07-29T09:29:26.328Z,32.00
2022-07-29T09:31:56.088Z,32.10
2022-07-29T09:34:25.787Z,32.20
2022-07-29T09:36:55.240Z,32.30
2022-07-29T09:39:30.903Z,32.40
2022-07-29T09:42:00.804Z,32.60
2022-07-29T09:44:42.769Z,32.60
2022-07-29T09:47:11.520Z,32.70
2022-07-29T09:49:52.986Z,32.90
2022-07-29T09:52:22.415Z,32.90
2022-07-29T09:54:51.486Z,33.00
2022-07-29T09:57:30.818Z,33.00
2022-07-29T10:00:03.150Z,33.10
2022-07-29T10:02:41.042Z,33.20
2022-07-29T10:05:19.808Z,33.30
2022-07-29T10:07:53.674Z,33.30
2022-07-29T10:10:24.263Z,33.40
2022-07-29T10:12:54.477Z,33.50
2022-07-29T10:15:25.897Z,33.70
2022-07-29T10:17:55.383Z,33.80
2022-07-29T10:20:24.113Z,33.90
2022-07-29T10:22:54.098Z,33.90
2022-07-29T10:25:45.899Z,34.10
2022-07-29T10:28:16.760Z,34.20
2022-07-29T10:31:07.562Z,34.20
2022-07-29T10:33:43.812Z,34.40
2022-07-29T10:36:24.722Z,34.50
2022-07-29T10:39:04.063Z,34.50
2022-07-29T10:41:44.123Z,34.50
2022-07-29T10:44:17.240Z,34.60
2022-07-29T10:46:49.685Z,34.70
2022-07-29T10:49:18.891Z,34.80
2022-07-29T10:51:54.467Z,34.80
2022-07-29T10:54:39.608Z,34.90
2022-07-29T10:57:18.473Z,35.00
2022-07-29T10:59:50.287Z,35.10
2022-07-29T11:02:42.086Z,35.20
2022-07-29T11:05:15.885Z,35.30
2022-07-29T11:08:19.588Z,35.50
2022-07-29T11:10:55.803Z,35.50
2022-07-29T11:13:43.060Z,35.70
2022-07-29T11:16:11.834Z,35.80
2022-07-29T11:19:03.619Z,36.00
2022-07-29T11:21:53.727Z,36.10
2022-07-29T11:24:29.345Z,36.30
2022-07-29T11:27:08.962Z,36.60
2022-07-29T11:29:39.998Z,36.90
2022-07-29T11:32:18.225Z,37.20
2022-07-29T11:34:51.907Z,37.50
2022-07-29T11:37:28.965Z,37.90
2022-07-29T11:40:14.778Z,38.10
2022-07-29T11:42:45.405Z,38.30
2022-07-29T11:45:43.403Z,38.50
2022-07-29T11:48:31.399Z,38.60
2022-07-29T11:50:55.543Z,38.80
2022-07-29T11:53:33.025Z,38.90
2022-07-29T11:58:51.353Z,39.00
2022-07-29T12:01:22.640Z,38.80
2022-07-29T12:04:04.526Z,38.90
2022-07-29T12:06:54.068Z,39.00
2022-07-29T12:09:25.022Z,39.20
2022-07-29T12:12:03.265Z,39.10
2022-07-29T12:14:34.796Z,39.00
2022-07-29T12:17:03.646Z,38.80
2022-07-29T12:19:44.252Z,38.70
2022-07-29T12:22:13.592Z,38.50
2022-07-29T12:24:47.290Z,38.40
2022-07-29T12:27:34.478Z,38.30
2022-07-29T12:30:10.101Z,38.20
2022-07-29T12:32:39.825Z,38.10
2022-07-29T12:35:10.411Z,38.10
2022-07-29T12:37:41.170Z,38.10
2022-07-29T12:40:13.914Z,38.30
2022-07-29T12:42:42.823Z,38.50
2022-07-29T12:45:11.559Z,38.60
2022-07-29T12:47:53.436Z,38.90
2022-07-29T12:50:26.135Z,38.90
2022-07-29T12:53:15.123Z,39.00
2022-07-29T12:55:50.130Z,39.00
2022-07-29T12:58:28.980Z,38.90
2022-07-29T13:01:16.914Z,38.80
2022-07-29T13:03:57.516Z,38.60
2022-07-29T13:06:30.054Z,38.50
2022-07-29T13:09:02.928Z,38.30
2022-07-29T13:11:34.168Z,38.30
2022-07-29T13:14:32.929Z,38.30
2022-07-29T13:17:06.300Z,38.30
2022-07-29T13:19:36.446Z,38.10
2022-07-29T13:22:05.383Z,37.90
2022-07-29T13:24:33.841Z,37.70
2022-07-29T13:27:05.729Z,37.50
2022-07-29T13:29:34.772Z,37.30
2022-07-29T13:32:03.289Z,37.20
2022-07-29T13:34:32.248Z,37.10
2022-07-29T13:37:00.692Z,37.00
2022-07-29T13:39:29.217Z,36.90
2022-07-29T13:41:58.221Z,36.70
2022-07-29T13:44:30.347Z,36.50
2022-07-29T13:47:00.095Z,36.40
2022-07-29T13:49:28.844Z,36.30
2022-07-29T13:51:57.548Z,36.30
2022-07-29T13:54:26.150Z,36.20
2022-07-29T13:57:14.952Z,36.00
2022-07-29T13:59:46.699Z,36.00
2022-07-29T14:02:17.092Z,35.90
2022-07-29T14:04:49.017Z,35.70
2022-07-29T14:07:19.014Z,35.60
2022-07-29T14:09:47.633Z,35.50
2022-07-29T14:12:16.298Z,35.40
2022-07-29T14:14:47.360Z,35.30
2022-07-29T14:17:16.448Z,35.30
2022-07-29T14:19:45.093Z,35.20
2022-07-29T14:22:13.937Z,35.10
2022-07-29T14:24:52.626Z,35.10
2022-07-29T14:27:37.369Z,35.00
2022-07-29T14:30:09.799Z,34.90
2022-07-29T14:32:38.572Z,34.90
2022-07-29T14:35:07.579Z,34.80
2022-07-29T14:37:39.970Z,34.70
2022-07-29T14:40:09.569Z,34.60
2022-07-29T14:42:38.789Z,34.60
2022-07-29T14:45:29.008Z,34.50
2022-07-29T14:47:57.712Z,34.40
2022-07-29T14:50:31.512Z,34.40
2022-07-29T14:53:00.863Z,34.30
2022-07-29T14:55:29.410Z,34.20
2022-07-29T14:58:07.722Z,34.10
2022-07-29T15:00:39.064Z,34.10
2022-07-29T15:03:11.353Z,34.00
2022-07-29T15:05:40.291Z,34.00
2022-07-29T15:08:09.987Z,33.90
2022-07-29T15:10:38.938Z,33.80
2022-07-29T15:13:07.529Z,33.70
2022-07-29T15:15:36.197Z,33.70
2022-07-29T15:18:06.241Z,33.60
2022-07-29T15:20:34.917Z,33.60
2022-07-29T15:23:03.725Z,33.50
2022-07-29T15:25:34.335Z,33.40
2022-07-29T15:28:04.105Z,33.30
2022-07-29T15:30:34.256Z,33.30
2022-07-29T15:33:04.382Z,33.20
2022-07-29T15:35:35.005Z,33.20
2022-07-29T15:38:09.758Z,33.10
2022-07-29T15:40:39.156Z,33.00
2022-07-29T15:43:07.795Z,33.00
2022-07-29T15:45:40.388Z,32.90
2022-07-29T15:48:10.270Z,32.80
2022-07-29T15:50:47.075Z,32.80
2022-07-29T15:53:16.181Z,32.70
2022-07-29T15:55:46.240Z,32.70
2022-07-29T15:58:14.796Z,32.60
2022-07-29T16:00:43.506Z,32.50
2022-07-29T16:03:11.963Z,32.50
2022-07-29T16:05:40.562Z,32.50
2022-07-29T16:08:10.554Z,32.40
2022-07-29T16:10:39.322Z,32.30
2022-07-29T16:13:07.831Z,32.20
2022-07-29T16:15:36.361Z,32.20
2022-07-29T16:18:05.013Z,32.10
2022-07-29T16:20:33.511Z,32.00
2022-07-29T16:23:02.046Z,31.90
2022-07-29T16:25:57.519Z,31.90
2022-07-29T16:28:20.886Z,31.80
2022-07-29T16:30:51.301Z,31.70
2022-07-29T16:33:19.917Z,31.70
2022-07-29T16:35:48.473Z,31.50
2022-07-29T16:38:17.060Z,31.50
2022-07-29T16:40:47.323Z,31.40
2022-07-29T16:43:16.035Z,31.30
2022-07-29T16:45:46.491Z,31.30
2022-07-29T16:48:15.453Z,31.40
2022-07-29T16:50:46.831Z,31.10
2022-07-29T16:53:15.386Z,31.00
2022-07-29T16:55:44.100Z,31.00
2022-07-29T16:58:14.089Z,30.90
2022-07-29T17:00:42.930Z,30.80
2022-07-29T17:03:11.523Z,30.70
2022-07-29T17:05:53.395Z,30.60
2022-07-29T17:08:23.139Z,30.50
2022-07-29T17:10:51.818Z,30.50
2022-07-29T17:13:21.943Z,30.40
2022-07-29T17:15:50.838Z,30.30
2022-07-29T17:18:19.426Z,30.20
2022-07-29T17:20:48.711Z,30.20
2022-07-29T17:23:17.270Z,30.00
2022-07-29T17:25:45.828Z,30.00
2022-07-29T17:28:14.459Z,29.90
2022-07-29T17:30:44.441Z,29.80
2022-07-29T17:33:13.034Z,29.70
2022-07-29T17:35:59.033Z,29.70
2022-07-29T17:38:27.780Z,29.60
2022-07-29T17:40:56.656Z,29.50
2022-07-29T17:43:25.234Z,29.40
2022-07-29T17:45:59.239Z,29.30
2022-07-29T17:48:28.105Z,29.20
2022-07-29T17:50:57.506Z,29.10
2022-07-29T17:53:26.042Z,29.10
2022-07-29T17:55:56.311Z,29.00
2022-07-29T17:58:25.061Z,28.90
2022-07-29T18:00:55.008Z,28.80
2022-07-29T18:03:23.742Z,28.80
2022-07-29T18:05:52.321Z,28.70
2022-07-29T18:08:21.057Z,28.70
2022-07-29T18:10:49.620Z,28.60
2022-07-29T18:13:18.358Z,28.60
2022-07-29T18:15:47.389Z,28.60
2022-07-29T18:18:19.252Z,28.60
2022-07-29T18:20:48.200Z,28.50
2022-07-29T18:23:17.034Z,28.50
2022-07-29T18:25:45.614Z,28.50
2022-07-29T18:28:14.260Z,28.40
2022-07-29T18:30:43.132Z,28.40
2022-07-29T18:33:23.052Z,28.30
2022-07-29T18:36:10.545Z,28.20
2022-07-29T18:38:41.074Z,28.20
2022-07-29T18:41:09.625Z,28.10
2022-07-29T18:43:38.376Z,28.10
2022-07-29T18:46:07.001Z,28.00
2022-07-29T18:48:35.819Z,27.90
2022-07-29T18:51:09.060Z,27.90
2022-07-29T18:53:38.250Z,27.80
2022-07-29T18:56:07.171Z,27.70
2022-07-29T18:58:54.831Z,27.70
2022-07-29T19:01:23.566Z,27.60
2022-07-29T19:04:00.761Z,27.50
2022-07-29T19:06:30.824Z,27.50
2022-07-29T19:09:00.269Z,27.40
2022-07-29T19:11:28.913Z,27.40
2022-07-29T19:13:57.491Z,27.30
2022-07-29T19:16:26.047Z,27.30
2022-07-29T19:18:54.968Z,27.20
2022-07-29T19:21:25.618Z,27.20
2022-07-29T19:24:03.836Z,27.20
2022-07-29T19:26:56.684Z,27.20
2022-07-29T19:29:26.770Z,27.10
2022-07-29T19:31:55.373Z,27.10
2022-07-29T19:34:23.848Z,27.10
2022-07-29T19:36:52.377Z,27.10
2022-07-29T19:39:34.771Z,27.00
2022-07-29T19:42:05.033Z,27.00
2022-07-29T19:44:33.718Z,27.00
2022-07-29T19:47:02.695Z,26.90
2022-07-29T19:49:31.426Z,26.90
2022-07-29T19:52:01.890Z,26.90
2022-07-29T19:54:31.900Z,26.90
2022-07-29T19:57:00.689Z,26.80
2022-07-29T19:59:51.246Z,26.80
2022-07-29T20:02:19.900Z,26.70
2022-07-29T20:04:48.795Z,26.60
2022-07-29T20:07:17.535Z,26.60
2022-07-29T20:09:47.585Z,26.60
2022-07-29T20:12:16.292Z,26.50
2022-07-29T20:14:44.934Z,26.50
2022-07-29T20:17:13.617Z,26.40
2022-07-29T20:19:42.905Z,26.40
2022-07-29T20:22:11.400Z,26.30
2022-07-29T20:24:40.007Z,26.20
2022-07-29T20:27:13.647Z,26.20
2022-07-29T20:29:42.638Z,26.10
2022-07-29T20:32:12.683Z,26.00
2022-07-29T20:34:41.519Z,26.10
2022-07-29T20:37:13.554Z,25.90
2022-07-29T20:39:43.044Z,25.90
2022-07-29T20:42:12.979Z,25.80
2022-07-29T20:44:41.858Z,25.80
2022-07-29T20:47:10.501Z,25.70
2022-07-29T20:49:39.192Z,25.70
2022-07-29T20:52:08.773Z,25.60
2022-07-29T20:54:37.412Z,25.50
2022-07-29T20:57:05.961Z,25.40
2022-07-29T20:59:36.082Z,25.30
2022-07-29T21:02:04.827Z,25.20
2022-07-29T21:04:33.574Z,25.20
2022-07-29T21:07:02.846Z,25.10
2022-07-29T21:09:32.181Z,25.10
2022-07-29T21:12:02.362Z,25.00
2022-07-29T21:14:47.821Z,24.90
2022-07-29T21:17:22.391Z,24.90
2022-07-29T21:19:52.848Z,24.90
2022-07-29T21:22:22.590Z,24.90
2022-07-29T21:24:51.386Z,24.90
2022-07-29T21:27:38.201Z,24.90
2022-07-29T21:30:07.736Z,24.90
2022-07-29T21:32:38.094Z,24.80
2022-07-29T21:35:18.180Z,24.80
2022-07-29T21:37:55.901Z,24.80
2022-07-29T21:40:24.515Z,24.80
2022-07-29T21:42:53.083Z,24.70
2022-07-29T21:45:21.779Z,24.70
2022-07-29T21:47:52.012Z,24.60
2022-07-29T21:50:20.673Z,24.60
2022-07-29T21:52:49.197Z,24.60
2022-07-29T21:55:18.571Z,24.50
2022-07-29T21:57:48.030Z,24.50
2022-07-29T22:00:16.890Z,24.50
2022-07-29T22:02:45.919Z,24.50
2022-07-29T22:05:15.902Z,24.50
2022-07-29T22:07:56.298Z,24.40
2022-07-29T22:10:26.051Z,24.30
2022-07-29T22:12:55.703Z,24.40
2022-07-29T22:15:24.495Z,24.30
2022-07-29T22:17:53.289Z,24.30
2022-07-29T22:20:24.498Z,24.30
2022-07-29T22:22:53.363Z,24.20
2022-07-29T22:25:22.042Z,24.20
2022-07-29T22:27:50.720Z,24.20
2022-07-29T22:30:19.333Z,24.10
2022-07-29T22:32:48.261Z,24.10
2022-07-29T22:35:16.914Z,24.10
2022-07-29T22:37:46.967Z,24.00
2022-07-29T22:40:15.570Z,24.00
2022-07-29T22:42:44.085Z,24.00
2022-07-29T22:45:12.595Z,24.00
2022-07-29T22:47:46.578Z,24.00
2022-07-29T22:50:17.521Z,23.90
2022-07-29T22:52:47.766Z,23.90
2022-07-29T22:55:16.552Z,23.90
2022-07-29T22:57:45.101Z,23.80
2022-07-29T23:00:14.489Z,23.80
2022-07-29T23:02:43.013Z,23.80
2022-07-29T23:05:11.753Z,23.80
2022-07-29T23:07:40.322Z,23.70
2022-07-29T23:10:10.800Z,23.70
2022-07-29T23:12:39.546Z,23.70
2022-07-29T23:15:08.455Z,23.70
2022-07-29T23:17:37.086Z,23.60
2022-07-29T23:20:06.860Z,23.60
2022-07-29T23:22:35.529Z,23.50
2022-07-29T23:25:04.134Z,23.50
2022-07-29T23:27:34.149Z,23.50
2022-07-29T23:30:03.001Z,23.50
2022-07-29T23:32:31.554Z,23.40
2022-07-29T23:35:00.143Z,23.50
2022-07-29T23:37:28.873Z,23.40
2022-07-29T23:39:57.543Z,23.40
2022-07-29T23:42:26.141Z,23.40
2022-07-29T23:44:56.073Z,23.30
2022-07-29T23:47:25.003Z,23.30
2022-07-29T23:49:53.601Z,23.30
2022-07-29T23:52:22.274Z,23.20
2022-07-29T23:54:50.956Z,23.30
2022-07-29T23:57:22.921Z,23.20
2022-07-29T23:59:51.793Z,23.20
